createdAt,value
2019-04-27T00:00:05.372Z,3.73
2019-04-27T00:02:50.791Z,3.80
2019-04-27T00:05:35.568Z,4.20
2019-04-27T00:08:24.020Z,4.10
2019-04-27T00:10:59.749Z,4.73
2019-04-27T00:13:29.395Z,4.93
2019-04-27T00:16:16.003Z,5.00
2019-04-27T00:18:57.912Z,4.97
2019-04-27T00:21:30.426Z,4.50
2019-04-27T00:23:59.064Z,5.67
2019-04-27T00:26:28.474Z,4.50
2019-04-27T00:28:57.327Z,5.77
2019-04-27T00:31:26.485Z,5.63
2019-04-27T00:33:55.835Z,4.83
2019-04-27T00:36:30.911Z,5.23
2019-04-27T00:39:17.615Z,5.07
2019-04-27T00:41:46.496Z,5.23
2019-04-27T00:44:15.377Z,5.57
2019-04-27T00:46:44.130Z,5.60
2019-04-27T00:49:13.744Z,5.50
2019-04-27T00:51:43.387Z,5.87
2019-04-27T00:54:13.619Z,6.20
2019-04-27T00:57:07.900Z,5.73
2019-04-27T00:59:55.666Z,5.23
2019-04-27T01:02:38.675Z,5.47
2019-04-27T01:05:13.811Z,5.47
2019-04-27T01:07:43.469Z,5.57
2019-04-27T01:10:13.459Z,5.47
2019-04-27T01:12:42.973Z,5.43
2019-04-27T01:15:13.818Z,5.27
2019-04-27T01:17:42.967Z,5.13
2019-04-27T01:20:12.103Z,5.70
2019-04-27T01:22:41.642Z,6.20
2019-04-27T01:25:10.709Z,5.87
2019-04-27T01:27:57.477Z,5.40
2019-04-27T01:30:49.028Z,5.93
2019-04-27T01:33:19.770Z,6.20
2019-04-27T01:35:49.167Z,5.70
2019-04-27T01:38:19.183Z,6.83
2019-04-27T01:40:49.826Z,6.17
2019-04-27T01:43:19.193Z,7.10
2019-04-27T01:45:48.805Z,6.87
2019-04-27T01:48:25.063Z,6.37
2019-04-27T01:50:49.259Z,6.90
2019-04-27T01:53:19.070Z,5.97
2019-04-27T01:55:49.135Z,6.60
2019-04-27T01:58:20.185Z,8.13
2019-04-27T02:00:59.405Z,7.87
2019-04-27T02:03:38.691Z,8.37
2019-04-27T02:06:09.113Z,9.13
2019-04-27T02:08:40.247Z,9.97
2019-04-27T02:11:09.261Z,9.50
2019-04-27T02:13:39.899Z,9.50
2019-04-27T02:16:09.144Z,9.33
2019-04-27T02:18:40.016Z,10.27
2019-04-27T02:21:09.138Z,10.20
2019-04-27T02:23:39.367Z,10.50
2019-04-27T02:26:08.666Z,10.17
2019-04-27T02:28:44.150Z,9.77
2019-04-27T02:31:40.367Z,10.70
2019-04-27T02:34:14.569Z,10.30
2019-04-27T02:36:43.210Z,10.87
2019-04-27T02:39:11.926Z,10.07
2019-04-27T02:41:40.581Z,9.53
2019-04-27T02:44:23.380Z,10.17
2019-04-27T02:46:52.679Z,9.43
2019-04-27T02:49:21.338Z,9.77
2019-04-27T02:52:00.193Z,9.30
2019-04-27T02:54:29.836Z,9.60
2019-04-27T02:56:59.334Z,8.43
2019-04-27T02:59:30.288Z,8.07
2019-04-27T03:02:07.616Z,8.03
2019-04-27T03:04:36.291Z,9.20
2019-04-27T03:07:05.127Z,7.53
2019-04-27T03:09:33.796Z,6.80
2019-04-27T03:12:04.198Z,8.73
2019-04-27T03:15:07.167Z,6.93
2019-04-27T03:17:45.186Z,6.37
2019-04-27T03:20:20.314Z,6.70
2019-04-27T03:23:05.776Z,6.10
2019-04-27T03:25:53.584Z,6.60
2019-04-27T03:28:22.632Z,6.07
2019-04-27T03:30:52.790Z,5.50
2019-04-27T03:33:22.818Z,5.33
2019-04-27T03:35:52.890Z,4.53
2019-04-27T03:38:22.637Z,4.70
2019-04-27T03:40:52.936Z,4.57
2019-04-27T03:43:24.587Z,4.50
2019-04-27T03:45:53.841Z,4.73
2019-04-27T03:48:22.635Z,3.90
2019-04-27T03:51:02.058Z,4.53
2019-04-27T03:53:45.111Z,4.13
2019-04-27T03:56:39.866Z,4.20
2019-04-27T03:59:12.932Z,4.10
2019-04-27T04:01:42.326Z,4.27
2019-04-27T04:04:11.716Z,3.63
2019-04-27T04:06:40.615Z,3.37
2019-04-27T04:09:10.484Z,3.10
2019-04-27T04:12:09.579Z,3.20
2019-04-27T04:14:42.498Z,3.57
2019-04-27T04:17:12.743Z,4.40
2019-04-27T04:19:54.222Z,4.07
2019-04-27T04:22:11.771Z,3.70
2019-04-27T04:24:40.431Z,4.20
2019-04-27T04:27:09.974Z,4.37
2019-04-27T04:29:39.428Z,5.10
2019-04-27T04:32:10.660Z,5.00
2019-04-27T04:34:39.938Z,4.27
2019-04-27T04:37:09.326Z,4.90
2019-04-27T04:39:40.240Z,4.60
2019-04-27T04:42:22.779Z,4.90
2019-04-27T04:45:16.496Z,4.67
2019-04-27T04:47:49.754Z,4.17
2019-04-27T04:50:22.436Z,5.00
2019-04-27T04:52:49.936Z,4.47
2019-04-27T04:55:20.378Z,5.20
2019-04-27T04:57:49.506Z,4.87
2019-04-27T05:00:19.926Z,5.17
2019-04-27T05:02:49.254Z,5.40
2019-04-27T05:05:19.319Z,4.83
2019-04-27T05:07:48.596Z,7.70
2019-04-27T05:10:18.857Z,5.53
2019-04-27T05:12:48.623Z,6.10
2019-04-27T05:15:19.219Z,5.90
2019-04-27T05:17:50.812Z,5.60
2019-04-27T05:20:39.987Z,5.57
2019-04-27T05:23:09.747Z,5.70
2019-04-27T05:25:39.090Z,6.17
2019-04-27T05:28:09.565Z,5.47
2019-04-27T05:30:39.036Z,6.30
2019-04-27T05:33:08.942Z,7.13
2019-04-27T05:35:40.670Z,7.30
2019-04-27T05:38:11.039Z,7.13
2019-04-27T05:40:39.843Z,6.97
2019-04-27T05:43:09.733Z,7.03
2019-04-27T05:46:29.804Z,7.00
2019-04-27T05:49:05.740Z,7.13
2019-04-27T05:51:36.660Z,7.83
2019-04-27T05:54:00.242Z,7.40
2019-04-27T05:56:28.965Z,6.40
2019-04-27T05:59:00.258Z,7.80
2019-04-27T06:01:29.676Z,7.40
2019-04-27T06:03:58.842Z,7.63
2019-04-27T06:06:29.535Z,7.50
2019-04-27T06:08:59.455Z,7.10
2019-04-27T06:11:29.242Z,7.83
2019-04-27T06:13:59.304Z,7.07
2019-04-27T06:16:29.525Z,7.40
2019-04-27T06:18:59.466Z,6.93
2019-04-27T06:21:29.498Z,6.20
2019-04-27T06:23:58.953Z,6.73
2019-04-27T06:26:29.916Z,6.83
2019-04-27T06:28:59.535Z,7.40
2019-04-27T06:31:29.670Z,7.13
2019-04-27T06:33:59.690Z,7.00
2019-04-27T06:36:34.702Z,7.87
2019-04-27T06:39:05.148Z,6.70
2019-04-27T06:41:33.882Z,6.90
2019-04-27T06:44:02.919Z,6.63
2019-04-27T06:46:31.592Z,7.10
2019-04-27T06:49:00.230Z,6.57
2019-04-27T06:51:28.922Z,7.40
2019-04-27T06:53:59.508Z,7.43
2019-04-27T06:56:28.825Z,8.33
2019-04-27T06:58:57.622Z,8.07
2019-04-27T07:01:26.286Z,7.70
2019-04-27T07:03:54.942Z,8.67
2019-04-27T07:06:23.630Z,8.30
2019-04-27T07:08:55.182Z,9.37
2019-04-27T07:11:23.126Z,9.87
2019-04-27T07:13:51.848Z,10.23
2019-04-27T07:16:20.588Z,10.37
2019-04-27T07:18:50.421Z,11.00
2019-04-27T07:21:24.826Z,10.53
2019-04-27T07:23:59.465Z,11.23
2019-04-27T07:26:30.292Z,11.07
2019-04-27T07:28:59.745Z,11.40
2019-04-27T07:31:29.522Z,10.97
2019-04-27T07:33:59.602Z,12.40
2019-04-27T07:36:29.085Z,12.10
2019-04-27T07:38:59.651Z,11.83
2019-04-27T07:41:29.184Z,11.73
2019-04-27T07:44:04.423Z,12.07
2019-04-27T07:46:33.396Z,12.07
2019-04-27T07:49:02.149Z,12.80
2019-04-27T07:51:34.118Z,11.90
2019-04-27T07:54:01.477Z,11.50
2019-04-27T07:56:30.183Z,11.57
2019-04-27T07:58:59.544Z,11.70
2019-04-27T08:01:29.363Z,11.77
2019-04-27T08:03:59.094Z,11.77
2019-04-27T08:06:28.970Z,11.80
2019-04-27T08:08:59.369Z,12.15
2019-04-27T08:11:29.279Z,12.15
2019-04-27T08:13:58.889Z,11.22
2019-04-27T08:16:29.103Z,10.60
2019-04-27T08:19:00.023Z,12.00
2019-04-27T08:21:28.949Z,11.85
2019-04-27T08:23:58.636Z,11.33
2019-04-27T08:26:33.794Z,11.75
2019-04-27T08:29:14.454Z,11.28
2019-04-27T08:31:51.472Z,12.70
2019-04-27T08:34:39.805Z,12.40
2019-04-27T08:37:09.271Z,12.47
2019-04-27T08:39:40.809Z,11.83
2019-04-27T08:42:12.328Z,12.18
2019-04-27T08:44:41.212Z,11.33
2019-04-27T08:47:10.294Z,12.20
2019-04-27T08:49:40.095Z,11.95
2019-04-27T08:52:09.513Z,11.30
2019-04-27T08:54:39.444Z,12.55
2019-04-27T08:57:09.695Z,12.58
2019-04-27T08:59:39.451Z,12.73
2019-04-27T09:02:08.830Z,12.83
2019-04-27T09:04:41.134Z,12.37
2019-04-27T09:07:29.441Z,12.75
2019-04-27T09:10:03.073Z,12.80
2019-04-27T09:12:53.466Z,11.48
2019-04-27T09:15:30.930Z,10.90
2019-04-27T09:18:00.391Z,11.38
2019-04-27T09:20:35.238Z,11.35
2019-04-27T09:23:03.978Z,11.55
2019-04-27T09:25:32.642Z,10.50
2019-04-27T09:28:02.336Z,10.35
2019-04-27T09:30:31.339Z,11.18
2019-04-27T09:33:00.031Z,10.72
2019-04-27T09:35:29.292Z,11.35
2019-04-27T09:37:57.970Z,10.82
2019-04-27T09:40:26.965Z,9.45
2019-04-27T09:42:57.245Z,9.55
2019-04-27T09:45:27.077Z,9.43
2019-04-27T09:47:56.383Z,9.85
2019-04-27T09:50:28.172Z,9.85
2019-04-27T09:52:56.449Z,14.93
2019-04-27T09:55:26.281Z,8.18
2019-04-27T09:57:56.918Z,8.80
2019-04-27T10:00:27.781Z,8.08
2019-04-27T10:02:56.601Z,7.80
2019-04-27T10:05:26.364Z,7.28
2019-04-27T10:07:56.760Z,7.35
2019-04-27T10:10:26.803Z,6.40
2019-04-27T10:12:56.857Z,6.28
2019-04-27T10:15:26.653Z,6.62
2019-04-27T10:17:57.656Z,6.45
2019-04-27T10:20:26.881Z,7.87
2019-04-27T10:22:56.462Z,8.00
2019-04-27T10:25:26.878Z,7.72
2019-04-27T10:27:58.767Z,7.62
2019-04-27T10:30:28.591Z,7.60
2019-04-27T10:32:57.269Z,6.70
2019-04-27T10:35:26.067Z,6.47
2019-04-27T10:37:55.001Z,6.17
2019-04-27T10:40:23.671Z,6.55
2019-04-27T10:42:52.373Z,6.47
2019-04-27T10:45:21.551Z,6.35
2019-04-27T10:47:50.231Z,6.50
2019-04-27T10:50:19.570Z,6.72
2019-04-27T10:52:53.595Z,6.05
2019-04-27T10:55:18.700Z,5.87
2019-04-27T10:57:47.641Z,7.05
2019-04-27T11:00:20.403Z,7.08
2019-04-27T11:02:49.376Z,7.08
2019-04-27T11:05:23.014Z,7.65
2019-04-27T11:07:52.487Z,7.70
2019-04-27T11:10:21.177Z,6.65
2019-04-27T11:12:50.203Z,7.67
2019-04-27T11:15:19.864Z,6.05
2019-04-27T11:17:48.603Z,5.97
2019-04-27T11:20:17.635Z,6.20
2019-04-27T11:22:46.528Z,5.92
2019-04-27T11:25:16.449Z,5.30
2019-04-27T11:27:45.201Z,5.87
2019-04-27T11:30:15.670Z,6.10
2019-04-27T11:32:44.551Z,5.42
2019-04-27T11:35:31.525Z,5.65
2019-04-27T11:38:00.475Z,5.53
2019-04-27T11:40:29.614Z,4.90
2019-04-27T11:42:58.251Z,4.67
2019-04-27T11:45:28.495Z,5.05
2019-04-27T11:47:57.471Z,4.70
2019-04-27T11:50:26.162Z,5.12
2019-04-27T11:52:56.673Z,4.58
2019-04-27T11:55:27.273Z,4.67
2019-04-27T11:57:56.603Z,5.10
2019-04-27T12:00:28.122Z,4.95
2019-04-27T12:02:56.875Z,5.45
2019-04-27T12:05:26.115Z,4.72
2019-04-27T12:07:56.046Z,4.78
2019-04-27T12:10:26.272Z,4.50
2019-04-27T12:12:56.234Z,4.35
2019-04-27T12:15:26.248Z,3.90
2019-04-27T12:17:56.287Z,5.17
2019-04-27T12:20:25.858Z,5.80
2019-04-27T12:22:54.799Z,4.75
2019-04-27T12:25:23.559Z,4.60
2019-04-27T12:27:59.210Z,4.58
2019-04-27T12:30:41.501Z,4.42
2019-04-27T12:33:10.211Z,3.37
2019-04-27T12:35:38.949Z,4.05
2019-04-27T12:38:07.613Z,3.67
2019-04-27T12:40:36.738Z,3.12
2019-04-27T12:43:06.208Z,4.05
2019-04-27T12:45:36.678Z,3.70
2019-04-27T12:48:05.601Z,4.90
2019-04-27T12:50:36.188Z,3.85
2019-04-27T12:53:07.487Z,3.30
2019-04-27T12:55:47.301Z,3.62
2019-04-27T12:58:33.569Z,3.37
2019-04-27T13:01:02.830Z,3.45
2019-04-27T13:03:31.496Z,3.50
2019-04-27T13:06:00.326Z,4.75
2019-04-27T13:08:29.000Z,3.70
2019-04-27T13:10:58.031Z,4.00
2019-04-27T13:13:26.836Z,3.47
2019-04-27T13:15:56.315Z,3.95
2019-04-27T13:18:25.779Z,3.70
2019-04-27T13:20:54.647Z,3.47
2019-04-27T13:23:23.613Z,4.08
2019-04-27T13:25:52.294Z,3.80
2019-04-27T13:28:20.985Z,3.67
2019-04-27T13:30:49.968Z,4.22
2019-04-27T13:33:19.262Z,4.60
2019-04-27T13:35:48.030Z,4.95
2019-04-27T13:38:18.126Z,5.10
2019-04-27T13:41:05.869Z,4.95
2019-04-27T13:43:36.376Z,5.10
2019-04-27T13:46:27.582Z,4.57
2019-04-27T13:49:14.205Z,5.03
2019-04-27T13:52:02.638Z,5.17
2019-04-27T13:54:31.641Z,4.60
2019-04-27T13:57:00.421Z,5.53
2019-04-27T13:59:29.129Z,5.37
2019-04-27T14:01:57.817Z,5.30
2019-04-27T14:04:26.533Z,4.87
2019-04-27T14:06:55.242Z,4.83
2019-04-27T14:09:25.374Z,4.43
2019-04-27T14:11:58.020Z,4.57
2019-04-27T14:14:26.818Z,4.30
2019-04-27T14:16:55.510Z,4.30
2019-04-27T14:19:24.159Z,3.63
2019-04-27T14:21:52.836Z,4.33
2019-04-27T14:24:29.954Z,4.23
2019-04-27T14:26:53.623Z,4.00
2019-04-27T14:29:22.353Z,3.47
2019-04-27T14:31:51.651Z,3.10
2019-04-27T14:34:20.319Z,3.17
2019-04-27T14:36:49.047Z,3.30
2019-04-27T14:39:18.684Z,3.33
2019-04-27T14:41:49.109Z,3.17
2019-04-27T14:44:18.709Z,3.03
2019-04-27T14:46:48.511Z,3.00
2019-04-27T14:49:19.587Z,2.53
2019-04-27T14:51:48.599Z,2.80
2019-04-27T14:54:17.516Z,2.40
2019-04-27T14:56:48.773Z,2.30
2019-04-27T14:59:18.785Z,1.67
2019-04-27T15:01:48.752Z,1.83
2019-04-27T15:04:17.754Z,1.30
2019-04-27T15:06:46.763Z,1.30
2019-04-27T15:09:17.998Z,1.77
2019-04-27T15:11:49.275Z,1.47
2019-04-27T15:14:20.728Z,1.40
2019-04-27T15:16:49.589Z,1.20
2019-04-27T15:19:23.633Z,1.90
2019-04-27T15:21:58.705Z,1.20
2019-04-27T15:24:23.224Z,1.23
2019-04-27T15:26:54.399Z,1.63
2019-04-27T15:29:25.193Z,1.43
2019-04-27T15:32:01.339Z,1.72
2019-04-27T15:35:00.590Z,1.80
2019-04-27T15:37:43.219Z,1.90
2019-04-27T15:40:29.531Z,2.02
2019-04-27T15:43:04.462Z,1.70
2019-04-27T15:45:33.131Z,1.57
2019-04-27T15:48:01.814Z,1.60
2019-04-27T15:50:32.238Z,1.43
2019-04-27T15:53:02.783Z,1.93
2019-04-27T15:55:36.694Z,1.93
2019-04-27T15:58:02.591Z,1.85
2019-04-27T16:00:31.600Z,1.80
2019-04-27T16:03:00.346Z,2.00
2019-04-27T16:05:32.653Z,1.90
2019-04-27T16:08:06.240Z,1.50
2019-04-27T16:10:32.787Z,2.58
2019-04-27T16:13:06.500Z,2.30
2019-04-27T16:15:32.167Z,2.00
2019-04-27T16:18:01.126Z,2.13
2019-04-27T16:20:33.751Z,2.33
2019-04-27T16:23:03.106Z,2.27
2019-04-27T16:25:32.781Z,2.30
2019-04-27T16:28:04.694Z,2.00
2019-04-27T16:30:31.828Z,2.00
2019-04-27T16:33:00.819Z,1.95
2019-04-27T16:35:29.557Z,2.00
2019-04-27T16:38:26.766Z,2.10
2019-04-27T16:40:59.754Z,1.95
2019-04-27T16:43:30.039Z,1.60
2019-04-27T16:46:04.364Z,1.80
2019-04-27T16:48:34.379Z,1.90
2019-04-27T16:51:00.760Z,1.50
2019-04-27T16:53:30.202Z,1.57
2019-04-27T16:56:14.840Z,1.40
2019-04-27T16:58:39.824Z,1.77
2019-04-27T17:01:18.389Z,1.53
2019-04-27T17:03:48.489Z,1.60
2019-04-27T17:06:19.091Z,1.50
2019-04-27T17:08:49.600Z,2.00
2019-04-27T17:11:19.549Z,2.50
2019-04-27T17:13:53.480Z,1.90
2019-04-27T17:16:36.663Z,1.77
2019-04-27T17:19:15.819Z,2.10
2019-04-27T17:21:44.495Z,1.93
2019-04-27T17:24:14.934Z,1.83
2019-04-27T17:26:43.817Z,1.60
2019-04-27T17:29:16.627Z,1.97
2019-04-27T17:31:50.466Z,2.20
2019-04-27T17:34:25.116Z,2.13
2019-04-27T17:36:54.850Z,2.23
2019-04-27T17:39:23.424Z,2.07
2019-04-27T17:41:52.744Z,2.07
2019-04-27T17:44:23.189Z,1.93
2019-04-27T17:46:52.037Z,1.70
2019-04-27T17:49:21.108Z,2.17
2019-04-27T17:51:49.882Z,1.97
2019-04-27T17:54:18.756Z,2.00
2019-04-27T17:56:49.410Z,2.10
2019-04-27T17:59:20.730Z,2.37
2019-04-27T18:01:49.623Z,2.00
2019-04-27T18:04:18.730Z,1.87
2019-04-27T18:06:48.355Z,2.33
2019-04-27T18:09:18.862Z,2.00
2019-04-27T18:11:48.638Z,2.00
2019-04-27T18:14:19.207Z,2.10
2019-04-27T18:16:48.399Z,2.40
2019-04-27T18:19:31.395Z,2.50
2019-04-27T18:22:01.528Z,2.20
2019-04-27T18:24:35.541Z,2.40
2019-04-27T18:27:12.531Z,2.43
2019-04-27T18:29:41.468Z,2.53
2019-04-27T18:32:10.769Z,2.37
2019-04-27T18:34:39.486Z,2.40
2019-04-27T18:37:08.171Z,2.50
2019-04-27T18:39:38.481Z,2.87
2019-04-27T18:42:08.866Z,3.50
2019-04-27T18:44:38.197Z,2.87
2019-04-27T18:47:08.414Z,3.73
2019-04-27T18:50:07.512Z,3.00
2019-04-27T18:52:46.932Z,3.07
2019-04-27T18:55:11.360Z,3.33
2019-04-27T18:57:40.908Z,3.30
2019-04-27T19:00:12.039Z,3.20
2019-04-27T19:02:40.718Z,3.47
2019-04-27T19:05:09.871Z,3.43
2019-04-27T19:07:38.806Z,3.20
2019-04-27T19:10:08.968Z,2.87
2019-04-27T19:12:39.430Z,3.30
2019-04-27T19:15:09.428Z,3.03
2019-04-27T19:17:38.787Z,3.53
2019-04-27T19:20:10.471Z,3.60
2019-04-27T19:22:38.964Z,3.10
2019-04-27T19:25:10.211Z,3.30
2019-04-27T19:28:01.830Z,4.33
2019-04-27T19:30:34.805Z,4.10
2019-04-27T19:33:03.479Z,4.10
2019-04-27T19:35:32.279Z,4.10
2019-04-27T19:38:01.037Z,3.83
2019-04-27T19:40:29.860Z,3.53
2019-04-27T19:42:58.914Z,3.67
2019-04-27T19:45:29.228Z,2.77
2019-04-27T19:47:58.111Z,2.50
2019-04-27T19:50:28.599Z,1.90
2019-04-27T19:52:58.735Z,1.73
2019-04-27T19:55:28.078Z,1.47
2019-04-27T19:57:59.484Z,1.40
2019-04-27T20:00:39.716Z,1.30
2019-04-27T20:03:12.013Z,1.13
2019-04-27T20:05:40.802Z,1.60
2019-04-27T20:08:14.287Z,1.10
2019-04-27T20:10:45.539Z,1.30
2019-04-27T20:13:14.717Z,0.90
2019-04-27T20:15:43.730Z,1.13
2019-04-27T20:18:12.743Z,1.20
2019-04-27T20:20:41.469Z,1.00
2019-04-27T20:23:10.236Z,1.13
2019-04-27T20:25:41.175Z,1.20
2019-04-27T20:28:09.938Z,1.40
2019-04-27T20:30:39.051Z,1.00
2019-04-27T20:33:07.723Z,1.20
2019-04-27T20:35:36.480Z,1.27
2019-04-27T20:38:05.206Z,0.90
2019-04-27T20:40:34.204Z,1.33
2019-04-27T20:43:03.161Z,1.10
2019-04-27T20:45:32.735Z,1.53
2019-04-27T20:48:01.653Z,1.40
2019-04-27T20:50:30.872Z,1.50
2019-04-27T20:53:04.103Z,1.00
2019-04-27T20:55:32.906Z,1.40
2019-04-27T20:58:02.828Z,1.00
2019-04-27T21:00:32.156Z,1.20
2019-04-27T21:03:23.024Z,1.20
2019-04-27T21:06:13.803Z,1.10
2019-04-27T21:08:43.067Z,1.00
2019-04-27T21:11:11.925Z,3.00
2019-04-27T21:13:40.783Z,1.60
2019-04-27T21:16:10.930Z,0.83
2019-04-27T21:18:41.870Z,1.10
2019-04-27T21:21:11.374Z,1.10
2019-04-27T21:23:41.466Z,1.30
2019-04-27T21:26:10.782Z,1.10
2019-04-27T21:28:42.946Z,1.23
2019-04-27T21:31:12.481Z,1.37
2019-04-27T21:33:41.134Z,1.40
2019-04-27T21:36:11.751Z,1.10
2019-04-27T21:38:42.806Z,1.10
2019-04-27T21:41:11.746Z,1.20
2019-04-27T21:43:43.423Z,1.30
2019-04-27T21:46:11.080Z,1.40
2019-04-27T21:48:41.512Z,1.33
2019-04-27T21:51:11.868Z,1.40
2019-04-27T21:56:12.674Z,1.40
2019-04-27T21:58:42.104Z,1.77
2019-04-27T22:01:31.683Z,1.30
2019-04-27T22:04:01.212Z,1.40
2019-04-27T22:06:30.249Z,1.17
2019-04-27T22:08:59.081Z,1.17
2019-04-27T22:11:28.099Z,1.10
2019-04-27T22:13:56.815Z,1.50
2019-04-27T22:16:25.934Z,1.47
2019-04-27T22:18:55.091Z,1.70
2019-04-27T22:21:24.293Z,1.50
2019-04-27T22:24:11.236Z,1.87
2019-04-27T22:26:41.523Z,2.10
2019-04-27T22:29:12.032Z,2.00
2019-04-27T22:31:41.595Z,1.53
2019-04-27T22:34:10.875Z,1.50
2019-04-27T22:36:39.821Z,1.77
2019-04-27T22:39:42.486Z,2.00
2019-04-27T22:42:31.293Z,1.87
2019-04-27T22:45:06.795Z,1.60
2019-04-27T22:47:35.507Z,1.50
2019-04-27T22:50:04.307Z,2.03
2019-04-27T22:52:33.348Z,2.10
2019-04-27T22:55:02.303Z,1.63
2019-04-27T22:57:41.385Z,1.90
2019-04-27T23:00:31.068Z,1.70
2019-04-27T23:03:02.421Z,1.70
2019-04-27T23:05:31.985Z,1.90
2019-04-27T23:08:01.889Z,2.07
2019-04-27T23:10:31.525Z,2.13
2019-04-27T23:13:01.148Z,1.70
2019-04-27T23:15:36.131Z,1.83
2019-04-27T23:18:04.855Z,1.97
2019-04-27T23:20:33.606Z,2.00
2019-04-27T23:23:02.850Z,1.93
2019-04-27T23:25:31.728Z,1.80
2019-04-27T23:28:00.610Z,1.90
2019-04-27T23:30:37.033Z,1.90
2019-04-27T23:33:05.838Z,2.00
2019-04-27T23:35:34.492Z,1.90
2019-04-27T23:38:14.810Z,1.90
2019-04-27T23:40:34.395Z,1.70
2019-04-27T23:43:03.066Z,2.00
2019-04-27T23:45:31.962Z,2.20
2019-04-27T23:48:01.049Z,2.37
2019-04-27T23:50:31.985Z,1.80
2019-04-27T23:53:11.737Z,2.60
2019-04-27T23:55:42.042Z,2.17
